createdAt,value
2022-10-14T00:00:27.776Z,15.63
2022-10-14T00:05:53.633Z,10.23
2022-10-14T00:11:07.120Z,14.90
2022-10-14T00:16:20.162Z,13.77
2022-10-14T00:21:26.013Z,13.88
2022-10-14T00:26:36.293Z,13.60
2022-10-14T00:31:42.546Z,16.30
2022-10-14T00:36:48.187Z,13.00
2022-10-14T00:42:00.278Z,14.63
2022-10-14T00:47:05.837Z,13.27
2022-10-14T00:52:17.348Z,16.02
2022-10-14T00:57:27.952Z,13.90
2022-10-14T01:02:33.663Z,17.70
2022-10-14T01:08:00.885Z,16.80
2022-10-14T01:13:19.176Z,19.63
2022-10-14T01:18:39.175Z,21.73
2022-10-14T01:24:07.701Z,19.63
2022-10-14T01:29:30.528Z,19.20
2022-10-14T01:34:44.540Z,21.77
2022-10-14T01:39:54.969Z,21.90
2022-10-14T01:45:05.148Z,18.77
2022-10-14T01:50:17.355Z,19.70
2022-10-14T01:55:27.206Z,19.48
2022-10-14T02:00:32.744Z,24.57
2022-10-14T02:05:49.588Z,21.33
2022-10-14T02:11:08.084Z,18.37
2022-10-14T02:16:22.770Z,19.20
2022-10-14T02:21:36.594Z,24.77
2022-10-14T02:26:43.841Z,22.30
2022-10-14T02:31:50.945Z,19.48
2022-10-14T02:37:03.268Z,21.85
2022-10-14T02:42:11.423Z,20.57
2022-10-14T02:47:16.722Z,23.08
2022-10-14T02:52:25.072Z,21.83
2022-10-14T02:57:32.339Z,27.73
2022-10-14T03:02:37.706Z,24.55
2022-10-14T03:07:46.748Z,24.50
2022-10-14T03:12:55.923Z,22.77
2022-10-14T03:18:07.613Z,21.25
2022-10-14T03:23:23.442Z,23.70
2022-10-14T03:28:31.952Z,22.53
2022-10-14T03:33:48.871Z,22.63
2022-10-14T03:38:59.710Z,22.63
2022-10-14T03:44:16.662Z,18.80
2022-10-14T03:49:41.351Z,19.52
2022-10-14T03:54:57.753Z,16.43
2022-10-14T04:00:03.702Z,18.90
2022-10-14T04:05:21.453Z,18.63
2022-10-14T04:10:31.252Z,18.00
2022-10-14T04:15:39.218Z,15.52
2022-10-14T04:20:49.627Z,16.55
2022-10-14T04:26:01.191Z,15.70
2022-10-14T04:31:08.587Z,15.63
2022-10-14T04:36:26.411Z,16.15
2022-10-14T04:41:37.490Z,16.87
2022-10-14T04:46:43.222Z,17.83
2022-10-14T04:51:48.944Z,19.30
2022-10-14T04:57:03.735Z,16.37
2022-10-14T05:02:09.302Z,15.10
2022-10-14T05:07:24.016Z,17.77
2022-10-14T05:12:37.770Z,13.80
2022-10-14T05:17:44.766Z,17.70
2022-10-14T05:22:54.500Z,15.47
2022-10-14T05:28:02.690Z,14.13
2022-10-14T05:33:09.454Z,15.05
2022-10-14T05:38:17.901Z,14.07
2022-10-14T05:43:32.110Z,16.30
2022-10-14T05:48:39.335Z,12.15
2022-10-14T05:53:45.161Z,13.80
2022-10-14T05:58:58.268Z,11.17
2022-10-14T06:04:05.164Z,12.63
2022-10-14T06:09:11.617Z,13.20
2022-10-14T06:14:20.568Z,12.00
2022-10-14T06:19:26.208Z,12.27
2022-10-14T06:24:31.606Z,10.90
2022-10-14T06:29:40.638Z,14.83
2022-10-14T06:34:46.388Z,13.70
2022-10-14T06:39:51.668Z,11.70
2022-10-14T06:44:59.682Z,12.27
2022-10-14T06:50:05.136Z,13.80
2022-10-14T06:55:11.131Z,11.17
2022-10-14T07:00:21.025Z,10.75
2022-10-14T07:05:26.776Z,13.23
2022-10-14T07:10:32.086Z,10.43
2022-10-14T07:15:40.943Z,10.63
2022-10-14T07:20:46.370Z,11.77
2022-10-14T07:25:51.741Z,10.30
2022-10-14T07:31:05.684Z,10.38
2022-10-14T07:36:15.153Z,13.37
2022-10-14T07:41:25.478Z,9.80
2022-10-14T07:46:35.002Z,12.23
2022-10-14T07:51:41.219Z,9.93
2022-10-14T07:56:49.236Z,12.25
2022-10-14T08:01:58.232Z,10.90
2022-10-14T08:07:04.755Z,10.00
2022-10-14T08:12:10.429Z,11.35
2022-10-14T08:17:18.691Z,10.40
2022-10-14T08:22:24.386Z,9.50
2022-10-14T08:27:30.190Z,12.60
2022-10-14T08:32:38.366Z,8.27
2022-10-14T08:37:44.036Z,8.47
2022-10-14T08:42:57.462Z,8.43
2022-10-14T08:48:13.169Z,8.97
2022-10-14T08:53:22.474Z,6.70
2022-10-14T08:58:32.177Z,6.13
2022-10-14T09:03:40.822Z,9.20
2022-10-14T09:08:48.480Z,6.43
2022-10-14T09:13:57.522Z,5.78
2022-10-14T09:19:08.973Z,6.47
2022-10-14T09:24:17.009Z,5.80
2022-10-14T09:29:28.965Z,6.30
2022-10-14T09:34:40.007Z,5.53
2022-10-14T09:39:45.819Z,8.38
2022-10-14T09:50:39.036Z,5.93
2022-10-14T09:55:51.073Z,7.22
2022-10-14T10:01:00.325Z,5.07
2022-10-14T10:06:11.729Z,7.10
2022-10-14T10:11:18.567Z,5.47
2022-10-14T10:16:26.601Z,9.27
2022-10-14T10:21:37.072Z,7.57
2022-10-14T10:26:42.721Z,6.32
2022-10-14T10:32:06.814Z,6.50
2022-10-14T10:37:31.872Z,6.23
2022-10-14T10:42:42.223Z,6.82
2022-10-14T10:47:54.101Z,4.90
2022-10-14T10:53:16.294Z,5.97
2022-10-14T10:58:40.733Z,7.85
2022-10-14T11:03:58.166Z,12.40
2022-10-14T11:09:21.475Z,12.83
2022-10-14T11:14:51.654Z,10.00
2022-10-14T11:20:05.687Z,9.03
2022-10-14T11:25:25.718Z,10.33
2022-10-14T11:30:45.469Z,11.25
2022-10-14T11:36:01.638Z,12.00
2022-10-14T11:41:19.308Z,10.07
2022-10-14T11:46:27.787Z,12.23
2022-10-14T11:51:37.595Z,14.47
2022-10-14T11:56:49.714Z,14.47
2022-10-14T12:02:07.315Z,13.32
2022-10-14T12:07:19.363Z,13.97
2022-10-14T12:12:31.546Z,13.27
2022-10-14T12:17:40.144Z,15.45
2022-10-14T12:22:47.796Z,15.23
2022-10-14T12:27:56.567Z,15.47
2022-10-14T12:33:04.243Z,15.88
2022-10-14T12:38:15.247Z,15.10
2022-10-14T12:43:29.780Z,13.33
2022-10-14T12:48:38.117Z,17.35
2022-10-14T12:53:53.269Z,15.77
2022-10-14T12:59:04.124Z,18.83
2022-10-14T13:04:20.134Z,13.85
2022-10-14T13:09:37.943Z,20.47
2022-10-14T13:15:04.170Z,14.70
2022-10-14T13:20:46.263Z,16.75
2022-10-14T13:25:53.667Z,19.90
2022-10-14T13:31:07.568Z,18.73
2022-10-14T13:36:19.514Z,20.92
2022-10-14T13:41:29.957Z,18.92
2022-10-14T13:46:47.130Z,19.13
2022-10-14T13:51:55.915Z,18.10
2022-10-14T13:57:38.251Z,17.63
2022-10-14T14:02:32.609Z,18.20
2022-10-14T14:08:21.665Z,21.35
2022-10-14T14:13:07.862Z,22.97
2022-10-14T14:18:49.258Z,16.40
2022-10-14T14:24:04.190Z,17.38
2022-10-14T14:29:16.452Z,18.27
2022-10-14T14:34:26.375Z,19.33
2022-10-14T14:39:33.158Z,23.08
2022-10-14T14:44:39.084Z,18.02
2022-10-14T14:49:47.207Z,27.17
2022-10-14T14:54:53.820Z,17.75
2022-10-14T15:00:04.671Z,19.43
2022-10-14T15:05:14.683Z,18.23
2022-10-14T15:10:26.337Z,19.20
2022-10-14T15:15:33.297Z,14.97
2022-10-14T15:20:46.616Z,16.00
2022-10-14T15:26:00.898Z,14.85
2022-10-14T15:31:18.574Z,16.37
2022-10-14T15:36:26.628Z,15.70
2022-10-14T15:41:32.445Z,15.60
2022-10-14T15:46:51.780Z,13.67
2022-10-14T15:51:59.903Z,11.97
2022-10-14T15:57:05.868Z,17.00
2022-10-14T16:02:21.030Z,16.17
2022-10-14T16:07:29.025Z,13.60
2022-10-14T16:12:34.774Z,17.08
2022-10-14T16:17:40.065Z,16.60
2022-10-14T16:22:48.180Z,16.50
2022-10-14T16:27:53.967Z,18.55
2022-10-14T16:33:00.376Z,17.63
2022-10-14T16:38:08.350Z,16.00
2022-10-14T16:43:14.180Z,16.25
2022-10-14T16:48:20.522Z,18.48
2022-10-14T16:53:45.329Z,16.77
2022-10-14T16:58:50.762Z,15.50
2022-10-14T17:03:58.668Z,15.52
2022-10-14T17:09:06.710Z,22.97
2022-10-14T17:14:15.578Z,17.88
2022-10-14T17:19:21.267Z,19.02
2022-10-14T17:24:29.530Z,16.53
2022-10-14T17:29:35.683Z,18.60
2022-10-14T17:34:41.064Z,17.75
2022-10-14T17:39:49.296Z,16.17
2022-10-14T17:44:54.756Z,15.50
2022-10-14T17:50:00.504Z,13.98
2022-10-14T17:55:09.550Z,13.00
2022-10-14T18:00:16.135Z,14.80
2022-10-14T18:05:21.392Z,14.07
2022-10-14T18:10:30.030Z,16.67
2022-10-14T18:15:36.577Z,14.15
2022-10-14T18:20:41.842Z,12.38
2022-10-14T18:25:50.216Z,12.77
2022-10-14T18:31:02.112Z,15.05
2022-10-14T18:36:09.718Z,13.30
2022-10-14T18:41:17.982Z,13.13
2022-10-14T18:46:25.703Z,16.35
2022-10-14T18:51:33.559Z,14.10
2022-10-14T18:56:42.206Z,16.10
2022-10-14T19:01:50.635Z,14.68
2022-10-14T19:06:56.510Z,13.68
2022-10-14T19:12:24.924Z,15.57
2022-10-14T19:17:30.373Z,15.27
2022-10-14T19:22:40.750Z,12.07
2022-10-14T19:27:49.313Z,15.17
2022-10-14T19:32:57.895Z,10.98
2022-10-14T19:38:03.760Z,16.63
2022-10-14T19:43:11.843Z,12.83
2022-10-14T19:48:17.609Z,11.68
2022-10-14T19:53:23.052Z,12.97
2022-10-14T19:58:34.186Z,14.70
2022-10-14T20:03:40.144Z,10.77
2022-10-14T20:08:46.359Z,11.83
2022-10-14T20:13:54.755Z,13.17
2022-10-14T20:19:00.195Z,12.93
2022-10-14T20:24:05.514Z,13.47
2022-10-14T20:29:14.780Z,12.53
2022-10-14T20:34:20.239Z,13.52
2022-10-14T20:39:26.364Z,13.50
2022-10-14T20:44:34.429Z,11.97
2022-10-14T20:49:39.996Z,11.32
2022-10-14T20:54:45.425Z,10.20
2022-10-14T20:59:53.297Z,14.60
2022-10-14T21:04:59.161Z,11.93
2022-10-14T21:10:04.609Z,26.47
2022-10-14T21:15:13.937Z,15.37
2022-10-14T21:20:19.823Z,15.85
2022-10-14T21:25:25.635Z,15.47
2022-10-14T21:30:34.446Z,12.10
2022-10-14T21:35:40.066Z,13.77
2022-10-14T21:40:45.703Z,17.67
2022-10-14T21:45:53.752Z,13.17
2022-10-14T21:51:04.665Z,12.02
2022-10-14T21:56:11.385Z,13.53
2022-10-14T22:01:22.588Z,7.90
2022-10-14T22:06:28.934Z,10.35
2022-10-14T22:11:36.153Z,11.43
2022-10-14T22:16:43.960Z,9.93
2022-10-14T22:21:50.227Z,9.15
2022-10-14T22:26:56.392Z,11.85
2022-10-14T22:32:04.194Z,9.97
2022-10-14T22:37:09.824Z,11.43
2022-10-14T22:42:17.058Z,13.73
2022-10-14T22:47:25.534Z,11.00
2022-10-14T22:52:31.482Z,10.65
2022-10-14T22:57:37.265Z,11.50
2022-10-14T23:02:45.800Z,8.47
2022-10-14T23:07:51.885Z,9.90
2022-10-14T23:12:57.387Z,13.67
2022-10-14T23:18:06.253Z,9.23
2022-10-14T23:23:11.637Z,9.32
2022-10-14T23:28:27.539Z,8.13
2022-10-14T23:33:35.606Z,10.37
2022-10-14T23:38:41.791Z,12.15
2022-10-14T23:43:47.296Z,11.90
2022-10-14T23:49:07.285Z,7.80
2022-10-14T23:54:20.971Z,7.57
2022-10-14T23:59:26.610Z,8.23
